Time;durP1;ratioP1;P1;durP2;ratioP2;P2;SDS_P1;SDS_P2;PMS_P1;PMS_P2;Temp;Humidity;BMP_temperature;BMP_pressure;BME280_temperature;BME280_humidity;BME280_pressure;Samples;Min_cycle;Max_cycle;Signal;HPM_P1;HPM_P2
2021/07/16 00:02:12;;;;;;;2.30;2.10;;;16.70;93.70;;;;;;5063492;28;20040;-68
2021/07/16 00:04:38;;;;;;;4.28;2.63;;;16.70;93.70;;;;;;5089279;28;20028;-67
2021/07/16 00:07:04;;;;;;;4.55;2.60;;;16.70;93.70;;;;;;5071568;28;20115;-68
2021/07/16 00:09:29;;;;;;;5.93;2.58;;;16.60;93.70;;;;;;5089682;28;20028;-67
2021/07/16 00:11:55;;;;;;;4.22;2.47;;;16.60;93.70;;;;;;5090447;28;20096;-67
2021/07/16 00:14:21;;;;;;;3.60;2.38;;;16.60;93.80;;;;;;5090446;28;20020;-67
2021/07/16 00:16:47;;;;;;;3.33;2.60;;;16.60;93.80;;;;;;5089383;28;20464;-67
2021/07/16 00:19:12;;;;;;;3.22;2.40;;;16.60;93.80;;;;;;5090501;28;20032;-66
2021/07/16 00:21:38;;;;;;;6.65;2.50;;;16.60;93.80;;;;;;5083197;28;20029;-68
2021/07/16 00:24:04;;;;;;;2.95;2.47;;;16.60;93.80;;;;;;5070283;28;20028;-67
2021/07/16 00:26:30;;;;;;;4.70;2.75;;;16.60;93.90;;;;;;5084630;28;20024;-67
2021/07/16 00:28:56;;;;;;;3.03;2.60;;;16.50;93.90;;;;;;5090023;28;20028;-67
2021/07/16 00:31:22;;;;;;;4.65;2.75;;;16.60;93.90;;;;;;5090372;28;20461;-68
2021/07/16 00:33:47;;;;;;;2.63;2.42;;;16.50;93.80;;;;;;5090113;28;20026;-67
2021/07/16 00:36:13;;;;;;;3.47;2.47;;;16.50;93.80;;;;;;5088649;28;20028;-67
2021/07/16 00:38:40;;;;;;;3.22;2.60;;;16.50;93.80;;;;;;5090109;28;20156;-66
2021/07/16 00:41:06;;;;;;;2.67;2.47;;;16.60;93.90;;;;;;5090242;28;20056;-68
2021/07/16 00:43:32;;;;;;;5.32;2.75;;;16.60;93.90;;;;;;5089371;28;20403;-67
2021/07/16 00:45:57;;;;;;;4.72;2.90;;;16.60;93.90;;;;;;5089227;28;20024;-68
2021/07/16 00:48:23;;;;;;;5.57;2.47;;;16.50;93.90;;;;;;5071341;28;20028;-66
2021/07/16 00:50:49;;;;;;;2.92;2.20;;;16.50;93.90;;;;;;5090405;28;20048;-67
2021/07/16 00:53:18;;;;;;;3.70;2.50;;;16.50;93.90;;;;;;5087717;28;20446;-67
2021/07/16 00:55:44;;;;;;;3.60;2.40;;;16.50;93.90;;;;;;5070010;28;20027;-68
2021/07/16 00:58:10;;;;;;;3.35;2.38;;;16.50;93.90;;;;;;5090167;28;20024;-67
2021/07/16 01:00:37;;;;;;;4.88;2.50;;;16.50;93.90;;;;;;5089998;28;20502;-67
2021/07/16 01:03:03;;;;;;;3.30;2.67;;;16.50;93.90;;;;;;5076565;28;20031;-67
2021/07/16 01:05:28;;;;;;;4.38;2.80;;;16.40;93.90;;;;;;5079716;28;20020;-68
2021/07/16 01:07:54;;;;;;;3.03;2.45;;;16.50;93.90;;;;;;5071936;28;20486;-67
2021/07/16 01:10:22;;;;;;;3.70;2.78;;;16.40;93.80;;;;;;5090030;28;20096;-67
2021/07/16 01:12:51;;;;;;;3.22;2.67;;;16.50;93.90;;;;;;5090181;28;20047;-67
2021/07/16 01:15:19;;;;;;;2.75;2.55;;;16.40;94.10;;;;;;5088076;28;20452;-67
2021/07/16 01:17:46;;;;;;;2.42;2.20;;;16.40;93.90;;;;;;5085169;28;20032;-67
2021/07/16 01:20:18;;;;;;;3.85;2.45;;;16.40;93.90;;;;;;5068653;28;20589;-68
2021/07/16 01:22:45;;;;;;;2.70;2.50;;;16.40;93.90;;;;;;5077397;28;20030;-68
2021/07/16 01:25:20;;;;;;;2.85;2.63;;;16.30;93.80;;;;;;5070475;28;20031;-67
2021/07/16 01:27:48;;;;;;;3.33;2.42;;;16.30;93.90;;;;;;5089815;28;20031;-67
2021/07/16 01:30:15;;;;;;;5.25;2.80;;;16.20;93.90;;;;;;5071861;28;20483;-68
2021/07/16 01:32:41;;;;;;;4.57;3.10;;;16.30;94.10;;;;;;5089895;28;20016;-67
2021/07/16 01:35:09;;;;;;;3.17;2.90;;;16.30;94.00;;;;;;5064628;28;20021;-67
2021/07/16 01:37:35;;;;;;;3.65;3.00;;;16.20;94.00;;;;;;5054877;28;20028;-67
2021/07/16 01:40:04;;;;;;;20.77;3.10;;;16.30;94.10;;;;;;5073364;28;20029;-66
2021/07/16 01:42:34;;;;;;;11.30;3.10;;;16.30;94.10;;;;;;5055238;28;20120;-67
2021/07/16 01:45:00;;;;;;;11.90;2.95;;;16.20;94.10;;;;;;5054229;28;20082;-67
2021/07/16 01:47:26;;;;;;;13.82;3.60;;;16.20;94.10;;;;;;5054766;28;20025;-68
2021/07/16 01:49:51;;;;;;;16.40;3.85;;;16.20;94.20;;;;;;5072978;28;20052;-67
2021/07/16 01:52:17;;;;;;;5.93;4.45;;;16.20;94.20;;;;;;5054880;28;20422;-66
2021/07/16 01:54:42;;;;;;;9.18;4.40;;;16.10;94.30;;;;;;5084383;28;20050;-67
2021/07/16 01:57:08;;;;;;;10.05;5.03;;;16.10;94.30;;;;;;5092962;28;20024;-67
2021/07/16 01:59:34;;;;;;;10.07;4.60;;;16.00;94.40;;;;;;5074917;28;20058;-67
2021/07/16 02:02:00;;;;;;;13.95;5.65;;;16.10;94.50;;;;;;5085801;28;20080;-67
2021/07/16 02:04:25;;;;;;;35.08;4.50;;;16.10;94.50;;;;;;5092711;28;20078;-66
2021/07/16 02:06:51;;;;;;;24.20;4.95;;;16.10;94.40;;;;;;5093829;28;20027;-68
2021/07/16 02:09:16;;;;;;;35.25;5.20;;;16.00;94.40;;;;;;5113273;28;20039;-67
2021/07/16 02:11:42;;;;;;;9.35;4.93;;;16.00;94.40;;;;;;5103127;28;20028;-67
2021/07/16 02:14:07;;;;;;;12.35;4.40;;;15.90;94.50;;;;;;5092719;28;20024;-67
2021/07/16 02:16:33;;;;;;;17.58;5.43;;;15.90;94.60;;;;;;5091699;28;20104;-67
2021/07/16 02:18:59;;;;;;;31.50;4.97;;;15.90;94.40;;;;;;5092683;28;20028;-67
2021/07/16 02:21:24;;;;;;;5.97;5.13;;;15.80;94.50;;;;;;5092410;28;20035;-67
2021/07/16 02:23:50;;;;;;;27.27;5.10;;;15.80;94.50;;;;;;5092865;28;20026;-67
2021/07/16 02:26:16;;;;;;;51.20;4.38;;;15.70;94.70;;;;;;5091489;28;20070;-66
2021/07/16 02:28:42;;;;;;;24.25;3.95;;;15.70;94.70;;;;;;5092452;28;20024;-67
2021/07/16 02:31:10;;;;;;;5.28;3.20;;;15.70;94.80;;;;;;5074194;28;20085;-66
2021/07/16 02:33:36;;;;;;;54.90;5.78;;;15.70;94.80;;;;;;5092117;28;20075;-67
2021/07/16 02:36:04;;;;;;;25.30;4.20;;;15.70;94.80;;;;;;5091202;28;20028;-66
2021/07/16 02:38:30;;;;;;;9.30;4.30;;;15.60;94.80;;;;;;5092464;28;20391;-68
2021/07/16 02:40:55;;;;;;;11.77;4.53;;;15.60;94.80;;;;;;5092262;28;20021;-67
2021/07/16 02:43:24;;;;;;;5.22;3.92;;;15.60;95.00;;;;;;5092464;28;20024;-67
2021/07/16 02:45:51;;;;;;;5.85;4.30;;;15.60;95.10;;;;;;5090203;28;20058;-66
2021/07/16 02:48:17;;;;;;;5.10;3.92;;;15.60;95.20;;;;;;5092029;28;20039;-67
2021/07/16 02:50:45;;;;;;;4.40;4.00;;;15.60;95.20;;;;;;5069950;28;20023;-67
2021/07/16 02:53:12;;;;;;;8.57;4.25;;;15.60;95.30;;;;;;5091926;28;20022;-67
2021/07/16 02:55:39;;;;;;;6.03;4.40;;;15.70;95.30;;;;;;5072630;28;20023;-67
2021/07/16 02:58:06;;;;;;;4.55;3.88;;;15.70;95.20;;;;;;5091763;28;20030;-67
2021/07/16 03:00:32;;;;;;;6.25;3.95;;;15.70;95.30;;;;;;5092004;28;20024;-67
2021/07/16 03:02:59;;;;;;;4.90;3.92;;;15.70;95.30;;;;;;5082885;28;20032;-66
2021/07/16 03:05:30;;;;;;;4.20;3.80;;;15.70;95.30;;;;;;5090343;28;20032;-66
2021/07/16 03:07:57;;;;;;;4.97;4.13;;;15.80;95.40;;;;;;5073358;28;20020;-68
2021/07/16 03:10:44;;;;;;;12.45;4.30;;;15.80;95.30;;;;;;5091787;28;20020;-68
2021/07/16 03:13:13;;;;;;;5.22;3.97;;;15.80;95.40;;;;;;5071417;28;20052;-67
2021/07/16 03:15:39;;;;;;;19.02;4.30;;;15.80;95.40;;;;;;5070278;28;20027;-67
2021/07/16 03:18:06;;;;;;;8.50;3.35;;;15.80;95.40;;;;;;5069725;28;20021;-67
2021/07/16 03:20:44;;;;;;;9.30;4.00;;;15.70;95.40;;;;;;5071587;28;20017;-67
2021/07/16 03:23:12;;;;;;;5.18;3.28;;;15.70;95.40;;;;;;5071452;28;20028;-68
2021/07/16 03:25:38;;;;;;;4.43;3.65;;;15.70;95.30;;;;;;5087901;28;20380;-67
2021/07/16 03:28:05;;;;;;;8.32;3.92;;;15.70;95.40;;;;;;5090994;28;20020;-67
2021/07/16 03:30:31;;;;;;;4.97;4.28;;;15.70;95.40;;;;;;5091343;28;20020;-67
2021/07/16 03:32:58;;;;;;;6.65;4.30;;;15.70;95.40;;;;;;5086241;28;20157;-67
2021/07/16 03:35:24;;;;;;;6.72;4.53;;;15.70;95.40;;;;;;5089781;28;20023;-66
2021/07/16 03:37:50;;;;;;;7.07;5.10;;;15.70;95.40;;;;;;5091049;28;20503;-67
2021/07/16 03:40:18;;;;;;;5.68;5.13;;;15.70;95.40;;;;;;5072806;28;20028;-66
2021/07/16 03:42:44;;;;;;;6.47;5.80;;;15.70;95.40;;;;;;5091092;28;20016;-68
2021/07/16 03:45:14;;;;;;;8.48;6.10;;;15.70;95.50;;;;;;5090011;28;20111;-67
2021/07/16 03:47:41;;;;;;;8.55;6.80;;;15.80;95.50;;;;;;5091021;28;20051;-66
2021/07/16 03:50:07;;;;;;;9.98;7.82;;;15.80;95.50;;;;;;5088708;28;20456;-67
2021/07/16 03:52:33;;;;;;;12.88;8.95;;;15.80;95.50;;;;;;5090467;28;20050;-67
2021/07/16 03:54:59;;;;;;;13.70;9.00;;;15.90;95.50;;;;;;5089911;28;20032;-67
2021/07/16 03:57:24;;;;;;;15.05;9.98;;;15.90;95.50;;;;;;5090314;28;20052;-66
2021/07/16 03:59:50;;;;;;;15.20;9.70;;;15.90;95.50;;;;;;5090825;28;20111;-66
2021/07/16 04:02:16;;;;;;;13.05;9.43;;;15.90;95.40;;;;;;5081773;28;20036;-67
2021/07/16 04:04:41;;;;;;;19.17;10.35;;;16.00;95.50;;;;;;5062824;28;20023;-67
2021/07/16 04:07:09;;;;;;;18.65;10.50;;;16.00;95.50;;;;;;5090358;28;20028;-67
2021/07/16 04:09:35;;;;;;;17.05;10.35;;;16.00;95.50;;;;;;5090629;28;20027;-67
2021/07/16 04:12:11;;;;;;;14.15;10.07;;;16.00;95.50;;;;;;5059550;28;20029;-66
2021/07/16 04:14:42;;;;;;;19.30;10.52;;;16.00;95.60;;;;;;5069339;28;20035;-67
2021/07/16 04:17:11;;;;;;;15.52;10.50;;;16.10;95.60;;;;;;5069762;28;20028;-67
2021/07/16 04:19:37;;;;;;;14.65;10.10;;;16.10;95.60;;;;;;5070342;28;20089;-67
2021/07/16 04:22:04;;;;;;;14.45;10.30;;;16.10;95.60;;;;;;5070267;28;20020;-68
2021/07/16 04:24:29;;;;;;;16.83;10.27;;;16.10;95.60;;;;;;5055429;28;20041;-67
2021/07/16 04:26:55;;;;;;;16.58;9.50;;;16.10;95.60;;;;;;5089564;28;20028;-67
2021/07/16 04:29:20;;;;;;;12.95;10.15;;;16.10;95.60;;;;;;5090464;28;20106;-67
2021/07/16 04:31:46;;;;;;;12.00;9.32;;;16.10;95.70;;;;;;5085279;28;20476;-66
2021/07/16 04:34:12;;;;;;;14.02;9.80;;;16.20;95.70;;;;;;5090328;28;20020;-67
2021/07/16 04:36:38;;;;;;;14.98;8.80;;;16.20;95.70;;;;;;5089224;28;20016;-67
2021/07/16 04:39:03;;;;;;;11.90;8.15;;;16.20;95.70;;;;;;5089932;28;20028;-67
2021/07/16 04:41:29;;;;;;;10.23;7.80;;;16.20;95.60;;;;;;5090370;28;20434;-67
2021/07/16 04:43:56;;;;;;;13.43;8.27;;;16.20;95.60;;;;;;5090304;28;20024;-68
2021/07/16 04:46:22;;;;;;;17.15;8.40;;;16.20;95.70;;;;;;5089251;28;20020;-67
2021/07/16 04:48:55;;;;;;;16.25;7.50;;;16.20;95.70;;;;;;5071809;28;20024;-68
2021/07/16 04:51:28;;;;;;;10.05;7.88;;;16.20;95.60;;;;;;5090276;28;20024;-67
2021/07/16 04:53:55;;;;;;;10.20;7.68;;;16.20;95.70;;;;;;5084133;28;20039;-66
2021/07/16 04:56:21;;;;;;;13.25;8.05;;;16.20;95.70;;;;;;5088989;28;20047;-67
2021/07/16 04:58:47;;;;;;;10.25;6.70;;;16.20;95.70;;;;;;5090021;28;20036;-68
2021/07/16 05:01:12;;;;;;;11.30;8.23;;;16.20;95.80;;;;;;5102734;22;20058;-68
2021/07/16 05:03:38;;;;;;;13.10;8.52;;;16.30;95.80;;;;;;5071349;28;20032;-68
2021/07/16 05:06:03;;;;;;;9.95;7.85;;;16.30;95.80;;;;;;5088498;28;20028;-68
2021/07/16 05:08:30;;;;;;;8.80;7.00;;;16.30;95.80;;;;;;5091662;28;20043;-68
2021/07/16 05:10:56;;;;;;;9.15;7.45;;;16.40;95.80;;;;;;5090126;28;20388;-68
2021/07/16 05:13:22;;;;;;;10.05;7.57;;;16.40;95.80;;;;;;5056267;28;20066;-68
2021/07/16 05:15:47;;;;;;;9.52;6.82;;;16.40;95.80;;;;;;5054543;28;20025;-68
2021/07/16 05:18:13;;;;;;;13.23;7.75;;;16.40;95.80;;;;;;5071562;28;20437;-68
2021/07/16 05:20:38;;;;;;;12.98;7.38;;;16.40;95.80;;;;;;5081919;28;20087;-68
2021/07/16 05:23:04;;;;;;;10.27;6.78;;;16.40;95.80;;;;;;5089359;28;20020;-68
2021/07/16 05:25:31;;;;;;;9.13;7.05;;;16.40;95.80;;;;;;5072202;28;20313;-68
2021/07/16 05:27:57;;;;;;;9.45;6.90;;;16.40;95.80;;;;;;5094084;28;20016;-68
2021/07/16 05:30:22;;;;;;;12.75;6.20;;;16.40;95.70;;;;;;5094251;28;20031;-68
2021/07/16 05:32:48;;;;;;;7.43;6.05;;;16.40;95.70;;;;;;5093668;28;20020;-68
2021/07/16 05:35:14;;;;;;;7.75;5.78;;;16.40;95.70;;;;;;5092942;28;20494;-68
2021/07/16 05:37:39;;;;;;;8.35;6.40;;;16.40;95.70;;;;;;5093850;28;20027;-68
2021/07/16 05:40:06;;;;;;;7.43;5.95;;;16.30;95.60;;;;;;5075864;28;20028;-68
2021/07/16 05:42:31;;;;;;;7.40;5.88;;;16.30;95.70;;;;;;5093935;28;20024;-68
2021/07/16 05:44:57;;;;;;;9.25;6.03;;;16.30;95.80;;;;;;5093040;28;20027;-68
2021/07/16 05:47:23;;;;;;;7.63;5.63;;;16.40;95.80;;;;;;5093650;28;20099;-68
2021/07/16 05:49:50;;;;;;;8.05;6.13;;;16.40;95.80;;;;;;5093586;28;20024;-67
2021/07/16 05:52:16;;;;;;;7.63;6.30;;;16.40;95.80;;;;;;5093897;28;20016;-68
2021/07/16 05:54:41;;;;;;;8.63;6.15;;;16.50;95.80;;;;;;5092509;28;20396;-68
2021/07/16 05:57:07;;;;;;;7.38;6.28;;;16.50;95.80;;;;;;5093632;28;20438;-68
2021/07/16 05:59:32;;;;;;;9.05;6.32;;;16.60;95.80;;;;;;5075303;28;20106;-68
2021/07/16 06:01:59;;;;;;;7.47;6.00;;;16.60;95.70;;;;;;5093371;28;20035;-68
2021/07/16 06:04:25;;;;;;;9.50;5.93;;;16.60;95.70;;;;;;5092900;28;20395;-68
2021/07/16 06:06:50;;;;;;;8.18;5.97;;;16.60;95.60;;;;;;5074521;28;20020;-68
2021/07/16 06:09:16;;;;;;;7.28;6.30;;;16.60;95.60;;;;;;5092750;28;20039;-68
2021/07/16 06:11:41;;;;;;;8.25;5.55;;;16.60;95.50;;;;;;5083311;28;20522;-67
2021/07/16 06:14:07;;;;;;;13.75;7.07;;;16.60;95.50;;;;;;5073017;28;20028;-68
2021/07/16 06:16:33;;;;;;;7.43;6.40;;;16.60;95.60;;;;;;5071773;28;20488;-68
2021/07/16 06:18:58;;;;;;;7.10;6.40;;;16.60;95.50;;;;;;5072173;28;20499;-68
2021/07/16 06:21:24;;;;;;;6.95;6.15;;;16.60;95.40;;;;;;5072308;28;20032;-68
2021/07/16 06:23:50;;;;;;;6.88;5.82;;;16.60;95.40;;;;;;5073172;28;20029;-68
2021/07/16 06:26:16;;;;;;;7.68;5.93;;;16.60;95.40;;;;;;5054089;28;20028;-67
2021/07/16 06:28:42;;;;;;;8.02;5.72;;;16.70;95.40;;;;;;5074450;28;20081;-68
2021/07/16 06:31:07;;;;;;;21.17;14.60;;;16.80;95.40;;;;;;5093107;28;20027;-67
2021/07/16 06:33:33;;;;;;;13.45;10.38;;;16.80;95.40;;;;;;5092235;28;20020;-68
2021/07/16 06:35:59;;;;;;;5.93;5.32;;;16.90;95.40;;;;;;5092061;28;20028;-68
2021/07/16 06:38:24;;;;;;;5.72;5.13;;;17.00;95.40;;;;;;5074571;28;20020;-68
2021/07/16 06:40:50;;;;;;;5.80;5.22;;;17.10;95.30;;;;;;5092952;28;20056;-68
2021/07/16 06:43:16;;;;;;;5.30;4.80;;;17.20;95.30;;;;;;5092827;28;20016;-68
2021/07/16 06:45:41;;;;;;;6.35;5.72;;;17.30;95.30;;;;;;5091872;28;20024;-67
2021/07/16 06:48:08;;;;;;;5.63;5.10;;;17.40;95.10;;;;;;5092411;28;20024;-68
2021/07/16 06:50:33;;;;;;;6.00;5.38;;;17.40;95.00;;;;;;5092513;28;20059;-68
2021/07/16 06:52:59;;;;;;;6.32;5.72;;;17.50;95.30;;;;;;5092854;28;20055;-68
2021/07/16 06:55:25;;;;;;;5.40;4.60;;;17.70;95.00;;;;;;5091314;28;20024;-68
2021/07/16 06:57:50;;;;;;;5.90;5.30;;;17.80;94.90;;;;;;5074636;28;20016;-68
2021/07/16 07:00:16;;;;;;;6.97;5.30;;;17.90;94.80;;;;;;5092543;28;20373;-68
2021/07/16 07:02:42;;;;;;;6.10;4.60;;;18.00;94.70;;;;;;5092120;28;20043;-68
2021/07/16 07:05:09;;;;;;;4.13;3.72;;;18.10;94.60;;;;;;5072977;28;20024;-68
2021/07/16 07:07:34;;;;;;;4.43;4.03;;;18.20;94.40;;;;;;5092541;28;20391;-69
2021/07/16 07:10:00;;;;;;;5.88;4.25;;;18.40;94.20;;;;;;5092263;28;20032;-69
2021/07/16 07:12:25;;;;;;;7.45;5.88;;;18.60;94.00;;;;;;5076116;28;20048;-69
2021/07/16 07:14:53;;;;;;;4.88;4.47;;;18.70;93.80;;;;;;5071091;28;20013;-69
2021/07/16 07:17:20;;;;;;;4.90;3.53;;;18.80;93.70;;;;;;5071456;28;20077;-69
2021/07/16 07:19:45;;;;;;;4.63;4.22;;;18.90;93.60;;;;;;5072157;28;20031;-69
2021/07/16 07:22:11;;;;;;;4.50;3.80;;;19.10;93.50;;;;;;5071761;28;20113;-69
2021/07/16 07:24:36;;;;;;;4.20;3.60;;;19.30;93.30;;;;;;5070847;28;20472;-69
2021/07/16 07:27:03;;;;;;;4.05;3.30;;;19.40;93.10;;;;;;5078878;28;20028;-68
2021/07/16 07:29:32;;;;;;;3.60;3.30;;;19.60;92.90;;;;;;5093071;28;20112;-69
2021/07/16 07:31:57;;;;;;;6.45;3.25;;;19.90;92.80;;;;;;5080225;28;20019;-70
2021/07/16 07:34:23;;;;;;;4.80;3.60;;;20.10;92.60;;;;;;5113128;28;20028;-71
2021/07/16 07:36:49;;;;;;;3.35;3.05;;;20.20;92.50;;;;;;5112305;28;20505;-70
2021/07/16 07:39:16;;;;;;;4.18;3.00;;;20.40;92.30;;;;;;5112758;28;20047;-69
2021/07/16 07:41:45;;;;;;;4.00;3.28;;;20.60;92.20;;;;;;5113209;28;20083;-72
2021/07/16 07:44:12;;;;;;;5.72;3.38;;;20.80;91.90;;;;;;5111693;28;20041;-69
2021/07/16 07:46:38;;;;;;;5.25;3.03;;;21.00;91.40;;;;;;5112148;28;20024;-72
2021/07/16 07:49:06;;;;;;;5.53;2.75;;;21.20;91.20;;;;;;5111592;28;20523;-70
2021/07/16 07:51:33;;;;;;;3.53;2.33;;;21.40;91.00;;;;;;5094105;28;20101;-72
2021/07/16 07:53:59;;;;;;;3.88;3.20;;;21.60;90.80;;;;;;5094078;28;20080;-70
2021/07/16 07:56:25;;;;;;;3.03;2.83;;;21.70;90.70;;;;;;5111492;28;20502;-71
2021/07/16 07:58:51;;;;;;;2.88;2.53;;;21.90;90.40;;;;;;5111468;28;20063;-70
2021/07/16 08:01:16;;;;;;;2.28;2.17;;;22.00;90.20;;;;;;5109182;28;20058;-70
2021/07/16 08:03:43;;;;;;;2.75;2.00;;;22.20;89.90;;;;;;5091211;28;20039;-71
2021/07/16 08:06:09;;;;;;;1.95;1.85;;;22.60;89.40;;;;;;5089852;28;20028;-69
2021/07/16 08:08:34;;;;;;;2.33;1.88;;;22.90;88.70;;;;;;5073025;28;20099;-70
2021/07/16 08:11:00;;;;;;;2.72;1.67;;;23.20;87.90;;;;;;5086686;28;20036;-69
2021/07/16 08:13:25;;;;;;;2.13;1.67;;;23.40;87.30;;;;;;5071164;28;20099;-69
2021/07/16 08:15:51;;;;;;;1.95;1.42;;;23.80;86.00;;;;;;5051636;28;20024;-69
2021/07/16 08:18:16;;;;;;;1.85;1.40;;;24.10;84.90;;;;;;5070847;28;20549;-69
2021/07/16 08:20:42;;;;;;;1.95;1.60;;;24.30;84.50;;;;;;5070696;28;20051;-70
2021/07/16 08:23:08;;;;;;;4.25;1.60;;;24.20;83.80;;;;;;5070818;28;20029;-70
2021/07/16 08:25:35;;;;;;;2.65;1.50;;;24.60;82.50;;;;;;5069635;28;20098;-68
2021/07/16 08:28:02;;;;;;;3.65;1.98;;;24.60;82.30;;;;;;5085280;28;20027;-68
2021/07/16 08:30:27;;;;;;;2.20;2.00;;;24.50;82.50;;;;;;5090665;28;20456;-70
2021/07/16 08:32:53;;;;;;;2.60;1.98;;;24.90;80.50;;;;;;5090387;28;20027;-67
2021/07/16 08:35:19;;;;;;;1.80;1.70;;;25.00;79.70;;;;;;5089770;28;20044;-69
2021/07/16 08:37:44;;;;;;;1.60;1.50;;;24.80;81.10;;;;;;5090593;28;20138;-69
2021/07/16 08:40:10;;;;;;;3.15;1.27;;;25.10;80.40;;;;;;5090903;28;20055;-69
2021/07/16 08:42:37;;;;;;;1.20;1.20;;;25.30;80.60;;;;;;5090945;28;20069;-69
2021/07/16 08:45:05;;;;;;;2.15;1.30;;;25.80;78.40;;;;;;5094138;28;20040;-69
2021/07/16 08:47:32;;;;;;;1.83;1.38;;;26.40;77.50;;;;;;5094655;28;20382;-69
2021/07/16 08:49:58;;;;;;;1.33;1.20;;;26.20;77.50;;;;;;5094928;28;20028;-69
2021/07/16 08:52:24;;;;;;;1.08;0.98;;;26.60;77.00;;;;;;5095059;28;20058;-70
2021/07/16 08:54:50;;;;;;;2.20;0.98;;;25.80;76.00;;;;;;5093592;28;20034;-67
2021/07/16 08:57:18;;;;;;;0.70;0.70;;;25.00;77.60;;;;;;5076315;28;20028;-70
2021/07/16 08:59:44;;;;;;;0.90;0.90;;;24.50;79.00;;;;;;5094663;28;20361;-68
2021/07/16 09:02:10;;;;;;;0.80;0.80;;;24.10;80.20;;;;;;5076327;28;20043;-70
2021/07/16 09:04:38;;;;;;;2.65;0.90;;;23.80;80.10;;;;;;5093065;28;20085;-69
2021/07/16 09:07:04;;;;;;;1.30;0.88;;;23.40;79.60;;;;;;5094639;28;20024;-70
2021/07/16 09:09:35;;;;;;;0.85;0.85;;;23.00;79.90;;;;;;5094465;28;20448;-70
2021/07/16 09:12:01;;;;;;;2.00;0.70;;;23.20;79.40;;;;;;5081685;28;20576;-70
2021/07/16 09:14:29;;;;;;;0.60;0.60;;;24.30;78.10;;;;;;5073825;28;20029;-70
2021/07/16 09:16:58;;;;;;;1.30;0.65;;;24.70;76.90;;;;;;5073163;28;20096;-70
2021/07/16 09:19:53;;;;;;;0.70;0.70;;;24.30;78.50;;;;;;5056374;28;20031;-70
2021/07/16 09:22:23;;;;;;;0.85;0.60;;;24.00;79.10;;;;;;5052500;28;20389;-68
2021/07/16 09:24:55;;;;;;;0.70;0.70;;;23.70;79.80;;;;;;5073177;28;20029;-70
2021/07/16 09:27:41;;;;;;;1.65;0.70;;;23.40;79.70;;;;;;5082879;28;20020;-68
2021/07/16 09:30:21;;;;;;;0.65;0.65;;;23.20;79.90;;;;;;5084324;28;20641;-67
2021/07/16 09:32:56;;;;;;;3.70;0.75;;;22.90;79.70;;;;;;5093426;28;20473;-68
2021/07/16 09:35:39;;;;;;;0.55;0.55;;;22.80;80.00;;;;;;5092946;28;20020;-70
2021/07/16 09:38:08;;;;;;;0.63;0.63;;;22.90;80.10;;;;;;5093748;28;20073;-68
2021/07/16 09:40:36;;;;;;;1.75;0.55;;;22.90;80.20;;;;;;5094051;28;20046;-70
2021/07/16 09:43:05;;;;;;;0.77;0.50;;;22.90;80.10;;;;;;5093681;28;20169;-69
2021/07/16 09:45:31;;;;;;;2.33;0.47;;;23.60;79.00;;;;;;5093007;28;20024;-70
2021/07/16 09:47:59;;;;;;;1.58;0.40;;;25.00;76.90;;;;;;5093424;28;20074;-71
2021/07/16 09:50:26;;;;;;;0.57;0.40;;;26.20;74.30;;;;;;5093847;28;20103;-70
2021/07/16 09:53:19;;;;;;;0.80;0.50;;;26.50;73.10;;;;;;5094351;28;20028;-68
2021/07/16 09:55:45;;;;;;;0.50;0.50;;;26.30;73.70;;;;;;5075628;28;20404;-70
2021/07/16 09:58:25;;;;;;;1.13;0.63;;;25.80;74.30;;;;;;5094956;28;20019;-70
2021/07/16 10:00:53;;;;;;;2.03;0.60;;;25.30;74.00;;;;;;5094455;28;20031;-72
2021/07/16 10:03:19;;;;;;;0.70;0.35;;;25.00;74.70;;;;;;5094213;28;20488;-69
2021/07/16 10:05:46;;;;;;;0.60;0.60;;;25.10;74.70;;;;;;5091521;28;20051;-70
2021/07/16 10:08:12;;;;;;;4.53;0.50;;;25.00;74.80;;;;;;5094600;28;20019;-70
2021/07/16 10:10:39;;;;;;;0.43;0.43;;;25.10;73.60;;;;;;5094300;28;20404;-70
2021/07/16 10:13:07;;;;;;;8.43;7.50;;;24.70;73.80;;;;;;5093875;28;20073;-70
2021/07/16 10:15:34;;;;;;;0.73;0.73;;;24.50;74.90;;;;;;5092511;28;20463;-70
2021/07/16 10:18:02;;;;;;;2.13;1.30;;;24.20;74.90;;;;;;5093310;28;20024;-68
2021/07/16 10:20:28;;;;;;;1.40;1.23;;;24.00;75.40;;;;;;5093339;28;20020;-67
2021/07/16 10:22:55;;;;;;;1.30;0.80;;;23.90;76.40;;;;;;5093369;28;20020;-70
2021/07/16 10:25:23;;;;;;;1.13;0.77;;;23.70;75.80;;;;;;5092019;28;20027;-70
2021/07/16 10:27:49;;;;;;;2.63;0.90;;;23.60;76.30;;;;;;5092981;28;20030;-68
2021/07/16 10:30:19;;;;;;;2.95;1.10;;;23.40;76.50;;;;;;5092841;28;20372;-69
2021/07/16 10:32:50;;;;;;;1.75;0.90;;;23.30;76.80;;;;;;5093007;28;20444;-70
2021/07/16 10:35:27;;;;;;;1.17;0.90;;;23.40;77.30;;;;;;5091398;28;20107;-70
2021/07/16 10:38:00;;;;;;;2.60;0.73;;;23.50;77.80;;;;;;5093120;28;20017;-69
2021/07/16 10:40:45;;;;;;;1.17;0.82;;;23.50;77.90;;;;;;5093330;28;20028;-69
2021/07/16 10:43:31;;;;;;;1.35;0.70;;;23.60;77.80;;;;;;5093074;28;20036;-68
2021/07/16 10:45:58;;;;;;;1.45;0.75;;;23.80;78.30;;;;;;5077553;28;20040;-70
2021/07/16 10:48:31;;;;;;;2.53;0.60;;;24.10;78.90;;;;;;5092672;28;20038;-70
2021/07/16 10:50:57;;;;;;;2.83;0.70;;;24.50;79.00;;;;;;5092791;28;20031;-69
2021/07/16 10:53:29;;;;;;;0.65;0.40;;;24.90;77.80;;;;;;5092984;28;20021;-70
2021/07/16 10:55:54;;;;;;;0.70;0.70;;;25.30;76.60;;;;;;5091462;28;20361;-70
2021/07/16 10:58:27;;;;;;;0.52;0.52;;;25.60;76.80;;;;;;5092417;28;20031;-69
2021/07/16 11:03:41;;;;;;;0.47;0.47;;;26.20;75.20;;;;;;5067113;28;21815;-69
2021/07/16 11:06:09;;;;;;;0.70;0.70;;;26.30;74.30;;;;;;5041774;28;20039;-66
2021/07/16 11:08:38;;;;;;;0.52;0.52;;;26.30;73.70;;;;;;5051330;28;20093;-67
2021/07/16 11:11:07;;;;;;;0.63;0.50;;;26.10;72.40;;;;;;5038716;28;20048;-67
2021/07/16 11:13:46;;;;;;;1.65;0.57;;;25.90;71.20;;;;;;5053956;28;20027;-67
2021/07/16 11:16:18;;;;;;;1.90;0.50;;;25.70;71.30;;;;;;5070871;28;20078;-69
2021/07/16 11:19:03;;;;;;;0.70;0.63;;;25.50;71.70;;;;;;5053445;28;20044;-66
2021/07/16 11:21:46;;;;;;;2.35;0.60;;;25.20;71.50;;;;;;5071803;28;20306;-66
2021/07/16 11:24:15;;;;;;;0.75;0.70;;;25.00;71.80;;;;;;5053642;28;20031;-66
2021/07/16 11:26:50;;;;;;;0.80;0.80;;;24.80;72.20;;;;;;5052364;28;20484;-67
2021/07/16 11:29:16;;;;;;;0.77;0.77;;;24.60;72.10;;;;;;5053036;28;20032;-67
2021/07/16 11:31:42;;;;;;;0.63;0.63;;;24.40;72.60;;;;;;5071357;28;20029;-68
2021/07/16 11:34:13;;;;;;;1.05;1.00;;;24.20;73.00;;;;;;5055080;28;20504;-67
2021/07/16 11:36:52;;;;;;;3.65;0.95;;;24.20;73.40;;;;;;5050699;28;20473;-67
2021/07/16 11:39:38;;;;;;;1.15;0.60;;;24.10;73.80;;;;;;5053895;28;20021;-67
2021/07/16 11:42:06;;;;;;;0.88;0.70;;;24.00;73.20;;;;;;5071527;28;20029;-67
2021/07/16 11:44:43;;;;;;;0.47;0.40;;;24.00;73.30;;;;;;5052855;28;20025;-67
2021/07/16 11:47:20;;;;;;;0.60;0.60;;;23.90;73.10;;;;;;5071184;28;20095;-68
2021/07/16 11:49:49;;;;;;;0.80;0.80;;;23.80;73.10;;;;;;5053296;28;20035;-66
2021/07/16 11:52:25;;;;;;;0.60;0.60;;;23.70;73.10;;;;;;5053360;28;20016;-66
2021/07/16 11:55:02;;;;;;;0.90;0.75;;;23.70;73.00;;;;;;5052436;28;20033;-66
2021/07/16 11:57:28;;;;;;;1.67;0.80;;;23.60;73.30;;;;;;5071188;28;20082;-66
2021/07/16 11:59:54;;;;;;;0.90;0.90;;;23.60;73.60;;;;;;5071233;28;20056;-68
2021/07/16 12:02:21;;;;;;;0.50;0.50;;;23.70;74.10;;;;;;5063404;28;20037;-68
2021/07/16 12:04:58;;;;;;;1.38;0.80;;;23.80;74.50;;;;;;5069623;28;20080;-67
2021/07/16 12:07:25;;;;;;;0.68;0.50;;;24.10;74.20;;;;;;5051902;28;20469;-67
2021/07/16 12:09:50;;;;;;;0.57;0.55;;;24.30;73.60;;;;;;5051168;28;20040;-67
2021/07/16 12:12:20;;;;;;;0.50;0.50;;;24.50;73.30;;;;;;5063606;28;20419;-66
2021/07/16 12:15:05;;;;;;;0.40;0.40;;;24.80;73.30;;;;;;5049887;28;20033;-67
2021/07/16 12:17:41;;;;;;;0.60;0.60;;;24.90;73.20;;;;;;5050402;28;20021;-67
2021/07/16 12:20:13;;;;;;;1.30;0.60;;;25.00;72.90;;;;;;5051088;28;20029;-67
2021/07/16 12:22:44;;;;;;;0.50;0.50;;;25.10;72.30;;;;;;5050954;28;20025;-68
2021/07/16 12:25:11;;;;;;;0.75;0.65;;;25.00;71.60;;;;;;5032019;28;20021;-67
2021/07/16 12:27:37;;;;;;;2.55;0.90;;;25.00;71.70;;;;;;5044261;28;20020;-68
2021/07/16 12:30:23;;;;;;;0.60;0.60;;;25.00;71.50;;;;;;5070723;28;20082;-68
2021/07/16 12:32:49;;;;;;;2.20;0.70;;;24.90;71.40;;;;;;5063361;28;20025;-67
2021/07/16 12:35:16;;;;;;;1.08;0.80;;;24.80;71.30;;;;;;5049597;28;20021;-68
2021/07/16 12:37:44;;;;;;;3.45;0.88;;;24.70;71.30;;;;;;5050754;28;20547;-67
2021/07/16 12:40:10;;;;;;;1.67;0.60;;;24.70;71.60;;;;;;5050687;28;20035;-67
2021/07/16 12:42:36;;;;;;;1.23;0.50;;;24.70;71.70;;;;;;5033037;28;20455;-68
2021/07/16 12:45:09;;;;;;;0.65;0.60;;;24.70;71.80;;;;;;5049744;28;20025;-68
2021/07/16 12:47:48;;;;;;;0.60;0.60;;;24.70;72.00;;;;;;5032860;28;20542;-67
2021/07/16 12:50:18;;;;;;;0.75;0.60;;;24.80;72.40;;;;;;5050622;28;20560;-68
2021/07/16 12:52:54;;;;;;;1.15;0.70;;;24.80;72.20;;;;;;5050733;28;20021;-67